Latest Weather Observations for Tarcoola

IDS60801

Issued at 10:31 pm CDT Sunday 29 March 2015 (issued every 30 minutes, with the page automatically refreshed every 10 minutes)

About weather observations | Map of weather stations | Latest weather observations for SA | Other Formats
Station Details ID: 016098 Name: TARCOOLA AERO Lat: -30.71 Lon: 134.58 Height: 123.0 m
Data from the previous 72 hours. | See also: Recent months at Tarcoola
Date/Time
CDT
Temp
°C
App
Temp
°C
Dew
Point
Rel
Hum
%
Delta-T
°C
Wind Press
QNH
hPa
Press
MSL
hPa
Rain
since 9 am
mm
Dir
 
Spd
km/h
Gust
km/h
Spd
kts
Gust
kts
29/10:30pm 22.5 19.8 7.5 38 7.8 ESE 11 11 6 6 1022.8 1022.2 0.0
29/10:00pm 23.2 20.6 7.7 37 8.1 ESE 11 13 6 7 1022.6 1022.0 0.0
29/09:30pm 23.2 22.6 7.3 36 8.3 CALM 0 6 0 3 1022.4 1021.8 0.0
29/09:00pm 24.0 21.7 7.6 35 8.6 SE 9 11 5 6 1022.2 1021.6 0.0
29/08:30pm 25.1 22.9 7.7 33 9.2 SSE 9 13 5 7 1021.9 1021.3 0.0
29/08:00pm 25.9 23.4 6.5 29 10.1 SE 9 11 5 6 1021.4 1020.8 0.0
29/07:30pm 26.8 24.4 6.8 28 10.6 SSE 9 13 5 7 1021.2 1020.6 0.0
29/07:00pm 27.4 24.7 7.3 28 10.8 SE 11 15 6 8 1021.0 1020.4 0.0
29/06:30pm 27.7 25.4 7.5 28 10.8 SE 9 15 5 8 1021.0 1020.4 0.0
29/06:00pm 28.4 26.5 6.5 25 11.6 WSW 6 15 3 8 1020.9 1020.3 0.0
29/05:30pm 28.8 25.6 6.8 25 11.7 NNW 13 17 7 9 1020.7 1020.1 0.0
29/05:00pm 28.8 25.6 6.8 25 11.8 N 13 24 7 13 1020.7 1020.1 0.0
29/04:30pm 29.3 25.9 6.0 23 12.3 NNW 13 20 7 11 1020.6 1020.0 0.0
29/04:00pm 29.1 26.5 5.9 23 12.3 ESE 9 15 5 8 1020.9 1020.3 0.0
29/03:30pm 28.3 26.2 5.8 24 11.8 NNE 6 13 3 7 1021.1 1020.5 0.0
29/03:00pm 28.9 25.8 5.7 23 12.2 E 11 20 6 11 1021.5 1020.9 0.0
29/02:30pm 28.9 25.1 5.7 23 12.2 NNE 15 24 8 13 1021.8 1021.2 0.0
29/02:00pm 28.0 24.5 5.6 24 11.7 ESE 13 20 7 11 1022.4 1021.8 0.0
29/01:30pm 27.7 24.7 5.9 25 11.4 NW 11 17 6 9 1022.8 1022.2 0.0
29/01:00pm 27.2 25.0 6.0 26 11.1 SE 7 17 4 9 1023.1 1022.6 0.0
29/12:30pm 26.7 23.1 5.1 25 11.0 NE 13 20 7 11 1023.3 1022.8 0.0
29/12:00pm 25.8 22.6 4.9 26 10.6 E 11 17 6 9 1023.5 1023.0 0.0
29/11:30am 25.0 21.3 4.2 26 10.4 ENE 13 20 7 11 1023.5 1023.0 0.0
29/11:00am 25.0 21.7 4.7 27 10.2 E 11 19 6 10 1023.5 1023.0 0.0
29/10:30am 23.8 21.0 5.2 30 9.4 NE 9 15 5 8 1023.6 1023.1 0.0
29/10:00am 22.0 19.5 6.7 37 7.9 N 9 13 5 7 1023.6 1023.1 0.0
29/09:30am 20.9 17.9 7.5 42 6.9 NNE 13 17 7 9 1023.4 1022.9 0.0
29/09:00am 19.2 16.4 7.0 45 6.2 NNE 11 13 6 7 1023.0 1022.5 0.0
29/08:30am 19.1 16.2 4.8 39 6.9 ENE 9 11 5 6 1022.6 1022.0 0.0
29/08:00am 16.7 13.4 4.4 44 5.8 ENE 11 13 6 7 1022.3 1021.7 0.0
29/07:30am 16.4 13.3 3.5 42 6.0 NNE 9 13 5 7 1022.3 1021.7 0.0
29/07:00am 17.9 15.4 3.8 39 6.7 NE 6 7 3 4 1021.9 1021.3 0.0
29/06:30am 18.5 15.5 4.3 39 6.8 NE 9 11 5 6 1021.4 1020.8 0.0
29/06:00am 18.9 17.9 5.4 41 6.6 CALM 0 0 0 0 1021.0 1020.4 0.0
29/05:30am 19.2 18.1 5.3 40 6.8 CALM 0 0 0 0 1021.2 1020.6 0.0
29/05:00am 19.6 17.5 5.6 40 6.9 S 6 7 3 4 1021.3 1020.7 0.0
29/04:30am 19.6 17.8 5.6 40 6.9 SSW 4 9 2 5 1021.3 1020.7 0.0
29/04:00am 19.8 16.9 4.7 37 7.4 SW 9 9 5 5 1021.4 1020.8 0.0
29/03:30am 19.9 17.8 4.0 35 7.6 SW 4 9 2 5 1021.5 1020.9 0.0
29/03:00am 20.3 18.9 3.5 33 8.0 CALM 0 6 0 3 1021.4 1020.8 0.0
29/02:30am 20.3 17.7 3.1 32 8.1 WSW 6 9 3 5 1021.7 1021.1 0.0
29/02:00am 20.4 17.7 2.7 31 8.3 W 6 11 3 6 1021.9 1021.3 0.0
29/01:30am 21.1 18.0 1.4 27 9.0 SW 7 9 4 5 1021.9 1021.3 0.0
29/01:00am 21.3 17.9 1.6 27 9.1 W 9 13 5 7 1022.0 1021.4 0.0
29/12:30am 21.3 18.4 1.6 27 9.1 SW 6 9 3 5 1022.1 1021.5 0.0
29/12:00am 21.7 18.6 1.4 26 9.4 S 7 9 4 5 1022.1 1021.5 0.0
 
Date/Time
CDT
Temp
°C
App
Temp
°C
Dew
Point
Rel
Hum
%
Delta-T
°C
Wind Press
QNH
hPa
Press
MSL
hPa
Rain
since 9 am
mm
Dir
 
Spd
km/h
Gust
km/h
Spd
kts
Gust
kts
28/11:30pm 22.0 18.5 1.1 25 9.6 S 9 11 5 6 1021.9 1021.3 0.0
28/11:00pm 21.5 18.8 0.1 24 9.6 WSW 4 9 2 5 1021.9 1021.3 0.0
28/10:30pm 22.5 19.3 0.9 24 9.9 WNW 7 7 4 4 1022.0 1021.4 0.0
28/10:00pm 23.0 19.4 0.8 23 10.3 WNW 9 11 5 6 1021.9 1021.3 0.0
28/09:30pm 23.6 20.0 0.7 22 10.6 NW 9 11 5 6 1021.7 1021.1 0.0
28/09:00pm 23.9 20.3 0.3 21 10.8 NW 9 11 5 6 1021.6 1021.0 0.0
28/08:30pm 24.2 20.5 -0.2 20 11.1 NW 9 13 5 7 1021.3 1020.7 0.0
28/08:00pm 24.8 21.4 -0.4 19 11.6 NNE 7 13 4 7 1020.9 1020.3 0.0
28/07:30pm 25.0 21.3 -0.2 19 11.6 WNW 9 13 5 7 1020.9 1020.3 0.0
28/07:00pm 25.5 21.7 -0.5 18 12.0 NW 9 15 5 8 1020.9 1020.3 0.0
28/06:30pm 25.8 21.7 -0.3 18 12.0 NW 11 15 6 8 1020.8 1020.2 0.0
28/06:00pm 26.1 22.0 0.0 18 12.1 NNW 11 19 6 10 1020.8 1020.2 0.0
28/05:30pm 26.0 22.7 -0.1 18 12.1 NNE 7 11 4 6 1020.7 1020.1 0.0
28/05:00pm 26.3 23.2 0.1 18 12.3 NW 6 11 3 6 1020.5 1019.9 0.0
28/04:30pm 26.2 23.1 0.0 18 12.2 E 6 9 3 5 1020.6 1020.0 0.0
28/04:00pm 26.0 22.7 -0.1 18 12.1 NNW 7 15 4 8 1020.6 1020.0 0.0
28/03:30pm 26.0 22.7 -0.1 18 12.1 NE 7 17 4 9 1020.8 1020.2 0.0
28/03:00pm 25.9 21.0 -0.2 18 12.1 NE 15 26 8 14 1021.1 1020.5 0.0
28/02:30pm 26.2 21.0 0.0 18 12.2 N 17 26 9 14 1021.5 1020.9 0.0
28/02:00pm 26.3 22.0 0.9 19 12.1 NNE 13 20 7 11 1022.1 1021.5 0.0
28/01:30pm 24.5 19.4 0.8 21 11.0 NNE 17 24 9 13 1022.8 1022.2 0.0
28/01:00pm 25.1 21.2 1.3 21 11.3 N 11 20 6 11 1023.2 1022.7 0.0
28/12:30pm 23.8 20.3 1.4 23 10.5 ENE 9 19 5 10 1023.6 1023.1 0.0
28/12:00pm 22.5 18.0 2.1 26 9.6 NE 15 20 8 11 1024.0 1023.5 0.0
28/11:30am 21.8 17.7 2.5 28 9.1 ENE 13 22 7 12 1024.2 1023.7 0.0
28/11:00am 20.6 15.9 2.9 31 8.4 ENE 17 20 9 11 1024.6 1024.1 0.0
28/10:30am 19.6 15.0 3.7 35 7.5 ENE 17 24 9 13 1025.1 1024.6 0.0
28/10:00am 18.8 14.7 4.6 39 6.9 NE 15 20 8 11 1025.3 1024.8 0.0
28/09:30am 17.1 12.7 4.8 44 5.9 NE 17 20 9 11 1025.0 1024.5 0.0
28/09:00am 16.8 12.6 3.8 42 6.0 ENE 15 19 8 10 1025.1 1024.6 0.0
28/08:30am 14.2 11.3 2.8 46 5.1 ENE 7 11 4 6 1024.5 1024.0 0.0
28/08:00am 13.1 9.7 2.1 47 4.8 NE 9 11 5 6 1024.4 1023.9 0.0
28/07:30am 13.9 10.2 2.5 46 5.0 E 11 15 6 8 1023.7 1023.2 0.0
28/07:00am 14.2 10.1 2.5 45 5.2 E 13 17 7 9 1023.6 1023.1 0.0
28/06:30am 11.0 7.5 -1.1 43 4.8 E 7 9 4 5 1023.3 1022.8 0.0
28/06:00am 10.5 8.5 0.0 48 4.2 CALM 0 0 0 0 1023.5 1023.0 0.0
28/05:30am 9.4 5.6 -1.0 48 4.1 SW 9 11 5 6 1023.5 1023.0 0.0
28/05:00am 9.2 5.6 -1.8 46 4.2 WSW 7 9 4 5 1023.6 1023.1 0.0
28/04:30am 9.4 5.8 -1.9 45 4.3 WSW 7 9 4 5 1023.6 1023.1 0.0
28/04:00am 9.9 7.7 -1.8 44 4.5 CALM 0 0 0 0 1023.7 1023.2 0.0
28/03:30am 11.6 8.8 -0.5 43 4.9 ENE 4 7 2 4 1023.7 1023.2 0.0
28/03:00am 11.2 7.9 -1.5 41 5.0 E 6 7 3 4 1024.0 1023.5 0.0
28/02:30am 12.5 9.3 0.6 44 5.0 ENE 7 9 4 5 1024.2 1023.7 0.0
28/02:00am 11.6 8.6 -1.9 39 5.3 ENE 4 7 2 4 1024.5 1024.0 0.0
28/01:30am 12.1 9.9 -1.8 38 5.5 CALM 0 0 0 0 1024.8 1024.3 0.0
28/01:00am 12.4 10.3 -0.5 41 5.3 CALM 0 0 0 0 1024.9 1024.4 0.0
28/12:30am 13.1 11.1 0.2 41 5.4 CALM 0 0 0 0 1025.5 1025.0 0.0
28/12:00am 13.5 11.1 -0.2 39 5.7 ESE 2 7 1 4 1025.5 1025.0 0.0
 
Date/Time
CDT
Temp
°C
App
Temp
°C
Dew
Point
Rel
Hum
%
Delta-T
°C
Wind Press
QNH
hPa
Press
MSL
hPa
Rain
since 9 am
mm
Dir
 
Spd
km/h
Gust
km/h
Spd
kts
Gust
kts
27/11:30pm 15.8 12.7 1.5 38 6.3 ENE 7 7 4 4 1025.5 1025.0 0.0
27/11:00pm 15.4 13.5 0.8 37 6.3 CALM 0 0 0 0 1025.6 1025.1 0.0
27/10:30pm 16.9 14.0 1.4 35 6.9 ESE 6 9 3 5 1025.7 1025.2 0.0
27/10:00pm 18.1 14.3 1.6 33 7.5 ESE 11 15 6 8 1025.4 1024.9 0.0
27/09:30pm 18.8 14.7 2.2 33 7.6 ESE 13 15 7 8 1025.4 1024.9 0.0
27/09:00pm 19.1 15.3 2.0 32 7.8 ESE 11 15 6 8 1025.4 1024.9 0.0
27/08:30pm 19.8 16.0 1.7 30 8.3 ESE 11 13 6 7 1025.2 1024.7 0.0
27/08:00pm 20.5 16.3 1.4 28 8.8 ESE 13 17 7 9 1024.9 1024.4 0.0
27/07:30pm 21.2 16.7 2.0 28 8.9 SE 15 19 8 10 1024.7 1024.2 0.0
27/07:00pm 21.6 17.0 1.8 27 9.2 SE 15 20 8 11 1024.6 1024.1 0.0
27/06:30pm 22.8 17.9 2.3 26 9.7 SE 17 22 9 12 1024.3 1023.8 0.0
27/06:00pm 22.5 17.6 2.1 26 9.6 SE 17 24 9 13 1024.2 1023.7 0.0
27/05:30pm 23.0 18.8 1.9 25 9.9 SE 13 20 7 11 1024.2 1023.7 0.0
27/05:00pm 23.0 20.0 1.9 25 10.0 SE 7 15 4 8 1024.4 1023.9 0.0
27/04:30pm 22.8 19.4 1.8 25 9.8 ESE 9 15 5 8 1024.8 1024.3 0.0
27/04:00pm 22.5 18.7 1.5 25 9.8 SSE 11 17 6 9 1024.9 1024.4 0.0
27/03:30pm 22.6 18.9 2.1 26 9.6 SE 11 17 6 9 1025.4 1024.9 0.0
27/03:00pm 22.9 20.0 2.4 26 9.7 ESE 7 19 4 10 1025.8 1025.3 0.0
27/02:30pm 21.6 18.4 2.8 29 8.9 E 9 19 5 10 1026.4 1025.9 0.0
27/02:00pm 20.8 17.1 2.6 30 8.6 SE 11 20 6 11 1027.1 1026.6 0.0
27/01:30pm 20.8 17.1 2.6 30 8.5 ESE 11 20 6 11 1027.7 1027.2 0.0
27/01:00pm 20.8 18.0 3.1 31 8.4 E 7 13 4 7 1028.2 1027.7 0.0
27/12:30pm 20.6 17.4 3.3 32 8.2 ENE 9 22 5 12 1028.8 1028.3 0.0
27/12:00pm 19.4 15.5 3.2 34 7.6 ESE 13 20 7 11 1029.6 1029.0 0.0
27/11:30am 18.6 14.0 3.6 37 7.0 ESE 17 24 9 13 1029.9 1029.3 0.0
27/11:00am 17.9 12.7 3.8 39 6.7 E 20 28 11 15 1030.1 1029.6 0.0
27/10:30am 17.3 11.9 4.6 43 6.0 E 22 32 12 17 1030.3 1029.8 0.0
27/10:00am 16.4 11.4 4.4 45 5.7 ESE 20 30 11 16 1030.2 1029.7 0.0
27/09:30am 15.5 10.6 4.2 47 5.2 ESE 19 26 10 14 1030.3 1029.8 0.0
27/09:00am 14.1 9.9 3.8 50 4.7 SE 15 19 8 10 1030.1 1029.6 0.0
27/08:30am 12.9 9.5 3.8 54 4.1 SE 11 15 6 8 1029.7 1029.1 0.0
27/08:00am 11.6 7.7 3.6 58 3.6 SE 13 17 7 9 1029.5 1028.9 0.0
27/07:30am 11.2 7.7 3.5 59 3.4 SE 11 15 6 8 1029.5 1028.9 0.0
27/07:00am 10.8 7.5 4.7 66 2.8 SSE 11 17 6 9 1029.2 1028.6 0.0
27/06:30am 8.0 5.0 2.0 66 2.5 SSW 7 9 4 5 1029.1 1028.5 0.0
27/06:00am 8.4 5.1 2.2 65 2.6 SSW 9 9 5 5 1029.1 1028.5 0.0
27/05:30am 8.4 5.4 2.0 64 2.6 SW 7 11 4 6 1029.1 1028.5 0.0
27/05:00am 8.9 5.5 2.0 62 2.9 S 9 9 5 5 1028.8 1028.3 0.0
27/04:30am 10.1 7.4 2.9 61 3.1 SW 6 7 3 4 1029.1 1028.5 0.0
27/04:00am 10.6 7.4 2.9 59 3.4 SW 9 11 5 6 1029.1 1028.5 0.0
27/03:30am 11.5 8.7 3.0 56 3.7 SSW 7 9 4 5 1029.2 1028.6 0.0
27/03:00am 12.3 9.2 3.5 55 3.9 SSW 9 13 5 7 1029.3 1028.7 0.0
27/02:30am 13.1 9.6 3.7 53 4.2 S 11 13 6 7 1029.3 1028.7 0.0
27/02:00am 13.7 10.3 3.8 51 4.5 S 11 15 6 8 1029.4 1028.8 0.0
27/01:30am 14.3 10.1 4.0 50 4.7 S 15 20 8 11 1029.3 1028.7 0.0
27/01:00am 14.8 10.2 3.9 48 5.0 S 17 20 9 11 1029.2 1028.6 0.0
27/12:30am 15.1 10.9 3.9 47 5.1 S 15 20 8 11 1029.2 1028.6 0.0
27/12:00am 15.7 11.2 4.1 46 5.4 S 17 22 9 12 1029.3 1028.7 0.0
 
Date/Time
CDT
Temp
°C
App
Temp
°C
Dew
Point
Rel
Hum
%
Delta-T
°C
Wind Press
QNH
hPa
Press
MSL
hPa
Rain
since 9 am
mm
Dir
 
Spd
km/h
Gust
km/h
Spd
kts
Gust
kts
26/11:30pm 16.4 11.9 4.4 45 5.6 S 17 26 9 14 1029.3 1028.7 0.0
26/11:00pm 17.0 11.9 4.0 42 6.1 S 20 28 11 15 1029.4 1028.8 0.0

Other Formats:

Comma delimited format used in spreadsheet applications
http://www.bom.gov.au/fwo/IDS60801/IDS60801.94655.axf

JavaScript Object Notation format (JSON) in row-major order
http://www.bom.gov.au/fwo/IDS60801/IDS60801.94655.json